sensor_id;sensor_type;location;lat;lon;timestamp;P1;durP1;ratioP1;P2;durP2;ratioP2
55589;SDS011;41452;42.780;23.116;2023-04-25T00:01:20;4.40;;;0.90;;
55589;SDS011;41452;42.780;23.116;2023-04-25T00:03:46;1.95;;;1.00;;
55589;SDS011;41452;42.780;23.116;2023-04-25T00:06:12;3.88;;;0.95;;
55589;SDS011;41452;42.780;23.116;2023-04-25T00:08:37;0.82;;;0.52;;
55589;SDS011;41452;42.780;23.116;2023-04-25T00:11:03;2.08;;;0.77;;
55589;SDS011;41452;42.780;23.116;2023-04-25T00:13:29;1.20;;;0.70;;
55589;SDS011;41452;42.780;23.116;2023-04-25T00:15:54;1.10;;;0.70;;
55589;SDS011;41452;42.780;23.116;2023-04-25T00:18:21;1.17;;;0.65;;
55589;SDS011;41452;42.780;23.116;2023-04-25T00:20:46;1.52;;;0.70;;
55589;SDS011;41452;42.780;23.116;2023-04-25T00:23:13;0.82;;;0.60;;
55589;SDS011;41452;42.780;23.116;2023-04-25T00:25:45;1.40;;;0.77;;
55589;SDS011;41452;42.780;23.116;2023-04-25T00:28:11;0.98;;;0.60;;
55589;SDS011;41452;42.780;23.116;2023-04-25T00:30:38;4.13;;;0.70;;
55589;SDS011;41452;42.780;23.116;2023-04-25T00:33:04;1.42;;;0.70;;
55589;SDS011;41452;42.780;23.116;2023-04-25T00:35:29;1.95;;;0.75;;
55589;SDS011;41452;42.780;23.116;2023-04-25T00:37:55;1.60;;;0.60;;
55589;SDS011;41452;42.780;23.116;2023-04-25T00:40:20;2.67;;;0.70;;
55589;SDS011;41452;42.780;23.116;2023-04-25T00:42:46;1.10;;;0.80;;
55589;SDS011;41452;42.780;23.116;2023-04-25T00:45:13;1.65;;;0.70;;
55589;SDS011;41452;42.780;23.116;2023-04-25T00:47:40;1.70;;;0.70;;
55589;SDS011;41452;42.780;23.116;2023-04-25T00:50:07;1.83;;;0.80;;
55589;SDS011;41452;42.780;23.116;2023-04-25T00:52:33;0.80;;;0.60;;
55589;SDS011;41452;42.780;23.116;2023-04-25T00:54:59;1.05;;;0.50;;
55589;SDS011;41452;42.780;23.116;2023-04-25T00:57:24;1.00;;;0.60;;
55589;SDS011;41452;42.780;23.116;2023-04-25T00:59:51;4.95;;;0.98;;
55589;SDS011;41452;42.780;23.116;2023-04-25T01:02:17;3.60;;;0.77;;
55589;SDS011;41452;42.780;23.116;2023-04-25T01:04:42;0.63;;;0.55;;
55589;SDS011;41452;42.780;23.116;2023-04-25T01:07:08;8.02;;;0.80;;
55589;SDS011;41452;42.780;23.116;2023-04-25T01:09:35;1.25;;;0.50;;
55589;SDS011;41452;42.780;23.116;2023-04-25T01:12:00;1.65;;;0.60;;
55589;SDS011;41452;42.780;23.116;2023-04-25T01:14:26;1.77;;;0.82;;
55589;SDS011;41452;42.780;23.116;2023-04-25T01:16:52;1.48;;;0.77;;
55589;SDS011;41452;42.780;23.116;2023-04-25T01:19:18;0.90;;;0.60;;
55589;SDS011;41452;42.780;23.116;2023-04-25T01:21:44;1.23;;;0.70;;
55589;SDS011;41452;42.780;23.116;2023-04-25T01:24:10;1.75;;;1.02;;
55589;SDS011;41452;42.780;23.116;2023-04-25T01:26:36;1.50;;;0.50;;
55589;SDS011;41452;42.780;23.116;2023-04-25T01:29:03;2.00;;;1.08;;
55589;SDS011;41452;42.780;23.116;2023-04-25T01:31:29;3.28;;;0.70;;
55589;SDS011;41452;42.780;23.116;2023-04-25T01:33:56;0.70;;;0.60;;
55589;SDS011;41452;42.780;23.116;2023-04-25T01:36:22;2.35;;;0.80;;
55589;SDS011;41452;42.780;23.116;2023-04-25T01:38:47;2.30;;;0.60;;
55589;SDS011;41452;42.780;23.116;2023-04-25T01:41:13;0.93;;;0.60;;
55589;SDS011;41452;42.780;23.116;2023-04-25T01:43:39;1.33;;;0.70;;
55589;SDS011;41452;42.780;23.116;2023-04-25T01:46:05;6.70;;;0.90;;
55589;SDS011;41452;42.780;23.116;2023-04-25T01:48:31;1.98;;;0.80;;
55589;SDS011;41452;42.780;23.116;2023-04-25T01:50:56;1.60;;;0.70;;
55589;SDS011;41452;42.780;23.116;2023-04-25T01:53:22;1.23;;;0.80;;
55589;SDS011;41452;42.780;23.116;2023-04-25T01:55:47;2.85;;;0.80;;
55589;SDS011;41452;42.780;23.116;2023-04-25T01:58:13;1.60;;;0.80;;
55589;SDS011;41452;42.780;23.116;2023-04-25T02:00:38;2.65;;;0.90;;
55589;SDS011;41452;42.780;23.116;2023-04-25T02:03:05;2.20;;;0.80;;
55589;SDS011;41452;42.780;23.116;2023-04-25T02:05:37;1.38;;;0.70;;
55589;SDS011;41452;42.780;23.116;2023-04-25T02:08:05;1.00;;;0.70;;
55589;SDS011;41452;42.780;23.116;2023-04-25T02:10:31;1.50;;;1.00;;
55589;SDS011;41452;42.780;23.116;2023-04-25T02:12:57;8.82;;;1.13;;
55589;SDS011;41452;42.780;23.116;2023-04-25T02:15:22;1.83;;;0.70;;
55589;SDS011;41452;42.780;23.116;2023-04-25T02:17:48;1.52;;;0.85;;
55589;SDS011;41452;42.780;23.116;2023-04-25T02:20:14;2.65;;;1.00;;
55589;SDS011;41452;42.780;23.116;2023-04-25T02:22:40;6.72;;;1.20;;
55589;SDS011;41452;42.780;23.116;2023-04-25T02:25:07;3.17;;;0.95;;
55589;SDS011;41452;42.780;23.116;2023-04-25T02:27:34;2.35;;;1.00;;
55589;SDS011;41452;42.780;23.116;2023-04-25T02:30:00;4.20;;;1.48;;
55589;SDS011;41452;42.780;23.116;2023-04-25T02:32:25;2.08;;;1.10;;
55589;SDS011;41452;42.780;23.116;2023-04-25T02:34:51;3.00;;;1.58;;
55589;SDS011;41452;42.780;23.116;2023-04-25T02:37:17;3.03;;;1.20;;
55589;SDS011;41452;42.780;23.116;2023-04-25T02:39:42;5.90;;;1.48;;
55589;SDS011;41452;42.780;23.116;2023-04-25T02:42:08;3.55;;;1.52;;
55589;SDS011;41452;42.780;23.116;2023-04-25T02:44:33;4.28;;;1.30;;
55589;SDS011;41452;42.780;23.116;2023-04-25T02:46:58;2.45;;;1.10;;
55589;SDS011;41452;42.780;23.116;2023-04-25T02:49:24;7.03;;;1.20;;
55589;SDS011;41452;42.780;23.116;2023-04-25T02:51:49;2.53;;;1.23;;
55589;SDS011;41452;42.780;23.116;2023-04-25T02:54:14;3.20;;;1.58;;
55589;SDS011;41452;42.780;23.116;2023-04-25T02:56:40;2.08;;;1.27;;
55589;SDS011;41452;42.780;23.116;2023-04-25T02:59:05;4.97;;;1.73;;
55589;SDS011;41452;42.780;23.116;2023-04-25T03:01:30;3.15;;;1.23;;
55589;SDS011;41452;42.780;23.116;2023-04-25T03:03:56;2.40;;;0.90;;
55589;SDS011;41452;42.780;23.116;2023-04-25T03:06:21;2.22;;;1.20;;
55589;SDS011;41452;42.780;23.116;2023-04-25T03:08:46;4.50;;;1.42;;
55589;SDS011;41452;42.780;23.116;2023-04-25T03:11:12;3.72;;;1.15;;
55589;SDS011;41452;42.780;23.116;2023-04-25T03:13:37;3.65;;;1.25;;
55589;SDS011;41452;42.780;23.116;2023-04-25T03:16:03;3.22;;;1.30;;
55589;SDS011;41452;42.780;23.116;2023-04-25T03:18:28;2.60;;;1.25;;
55589;SDS011;41452;42.780;23.116;2023-04-25T03:20:54;3.67;;;1.02;;
55589;SDS011;41452;42.780;23.116;2023-04-25T03:23:19;2.05;;;1.17;;
55589;SDS011;41452;42.780;23.116;2023-04-25T03:25:44;0.93;;;0.75;;
55589;SDS011;41452;42.780;23.116;2023-04-25T03:28:10;2.05;;;1.27;;
55589;SDS011;41452;42.780;23.116;2023-04-25T03:30:35;2.78;;;1.00;;
55589;SDS011;41452;42.780;23.116;2023-04-25T03:33:01;2.47;;;1.30;;
55589;SDS011;41452;42.780;23.116;2023-04-25T03:35:26;3.92;;;1.27;;
55589;SDS011;41452;42.780;23.116;2023-04-25T03:37:52;3.17;;;1.20;;
55589;SDS011;41452;42.780;23.116;2023-04-25T03:40:17;3.53;;;1.50;;
55589;SDS011;41452;42.780;23.116;2023-04-25T03:42:42;7.80;;;1.45;;
55589;SDS011;41452;42.780;23.116;2023-04-25T03:45:08;8.50;;;1.88;;
55589;SDS011;41452;42.780;23.116;2023-04-25T03:47:33;2.50;;;1.30;;
55589;SDS011;41452;42.780;23.116;2023-04-25T03:49:58;2.13;;;1.23;;
55589;SDS011;41452;42.780;23.116;2023-04-25T03:52:26;2.55;;;1.33;;
55589;SDS011;41452;42.780;23.116;2023-04-25T03:54:51;5.40;;;1.90;;
55589;SDS011;41452;42.780;23.116;2023-04-25T03:57:17;3.10;;;1.70;;
55589;SDS011;41452;42.780;23.116;2023-04-25T03:59:42;5.03;;;1.98;;
55589;SDS011;41452;42.780;23.116;2023-04-25T04:02:08;3.50;;;1.70;;
55589;SDS011;41452;42.780;23.116;2023-04-25T04:04:33;4.75;;;2.10;;
55589;SDS011;41452;42.780;23.116;2023-04-25T04:06:58;5.03;;;2.40;;
55589;SDS011;41452;42.780;23.116;2023-04-25T04:09:24;8.63;;;3.03;;
55589;SDS011;41452;42.780;23.116;2023-04-25T04:11:50;9.52;;;4.55;;
55589;SDS011;41452;42.780;23.116;2023-04-25T04:14:16;6.75;;;3.72;;
55589;SDS011;41452;42.780;23.116;2023-04-25T04:16:41;7.80;;;3.55;;
55589;SDS011;41452;42.780;23.116;2023-04-25T04:19:07;9.00;;;3.50;;
55589;SDS011;41452;42.780;23.116;2023-04-25T04:21:32;8.93;;;3.38;;
55589;SDS011;41452;42.780;23.116;2023-04-25T04:23:58;4.47;;;2.78;;
55589;SDS011;41452;42.780;23.116;2023-04-25T04:26:25;6.68;;;3.13;;
55589;SDS011;41452;42.780;23.116;2023-04-25T04:28:51;6.18;;;3.67;;
55589;SDS011;41452;42.780;23.116;2023-04-25T04:31:16;9.55;;;3.50;;
55589;SDS011;41452;42.780;23.116;2023-04-25T04:33:44;6.03;;;3.72;;
55589;SDS011;41452;42.780;23.116;2023-04-25T04:36:10;5.22;;;2.70;;
55589;SDS011;41452;42.780;23.116;2023-04-25T04:38:36;4.85;;;3.42;;
55589;SDS011;41452;42.780;23.116;2023-04-25T04:41:01;6.88;;;3.45;;
55589;SDS011;41452;42.780;23.116;2023-04-25T04:43:27;5.95;;;3.55;;
55589;SDS011;41452;42.780;23.116;2023-04-25T04:45:53;12.27;;;3.65;;
55589;SDS011;41452;42.780;23.116;2023-04-25T04:48:21;5.72;;;3.30;;
55589;SDS011;41452;42.780;23.116;2023-04-25T04:50:46;6.13;;;3.47;;
55589;SDS011;41452;42.780;23.116;2023-04-25T04:53:12;8.73;;;4.15;;
55589;SDS011;41452;42.780;23.116;2023-04-25T04:55:38;6.47;;;3.88;;
55589;SDS011;41452;42.780;23.116;2023-04-25T04:58:03;8.18;;;4.90;;
55589;SDS011;41452;42.780;23.116;2023-04-25T05:00:28;6.78;;;3.85;;
55589;SDS011;41452;42.780;23.116;2023-04-25T05:02:54;10.18;;;4.65;;
55589;SDS011;41452;42.780;23.116;2023-04-25T05:05:20;8.73;;;4.55;;
55589;SDS011;41452;42.780;23.116;2023-04-25T05:07:46;8.88;;;4.50;;
55589;SDS011;41452;42.780;23.116;2023-04-25T05:10:11;8.20;;;4.63;;
55589;SDS011;41452;42.780;23.116;2023-04-25T05:12:36;6.63;;;4.55;;
55589;SDS011;41452;42.780;23.116;2023-04-25T05:15:02;13.07;;;4.60;;
55589;SDS011;41452;42.780;23.116;2023-04-25T05:17:27;7.47;;;4.38;;
55589;SDS011;41452;42.780;23.116;2023-04-25T05:19:52;7.95;;;4.47;;
55589;SDS011;41452;42.780;23.116;2023-04-25T05:22:18;9.57;;;4.47;;
55589;SDS011;41452;42.780;23.116;2023-04-25T05:24:43;6.15;;;4.03;;
55589;SDS011;41452;42.780;23.116;2023-04-25T05:27:09;4.88;;;3.35;;
55589;SDS011;41452;42.780;23.116;2023-04-25T05:29:34;5.93;;;3.70;;
55589;SDS011;41452;42.780;23.116;2023-04-25T05:32:00;7.68;;;3.40;;
55589;SDS011;41452;42.780;23.116;2023-04-25T05:34:25;6.03;;;4.07;;
55589;SDS011;41452;42.780;23.116;2023-04-25T05:36:51;6.25;;;3.67;;
55589;SDS011;41452;42.780;23.116;2023-04-25T05:39:16;5.97;;;3.85;;
55589;SDS011;41452;42.780;23.116;2023-04-25T05:41:42;7.18;;;4.05;;
55589;SDS011;41452;42.780;23.116;2023-04-25T05:44:08;7.22;;;3.92;;
55589;SDS011;41452;42.780;23.116;2023-04-25T05:46:33;6.65;;;3.97;;
55589;SDS011;41452;42.780;23.116;2023-04-25T05:48:58;7.00;;;4.60;;
55589;SDS011;41452;42.780;23.116;2023-04-25T05:51:24;6.75;;;4.40;;
55589;SDS011;41452;42.780;23.116;2023-04-25T05:53:49;6.68;;;4.03;;
55589;SDS011;41452;42.780;23.116;2023-04-25T05:56:15;5.72;;;4.18;;
55589;SDS011;41452;42.780;23.116;2023-04-25T05:58:40;5.68;;;4.00;;
55589;SDS011;41452;42.780;23.116;2023-04-25T06:01:06;6.97;;;4.85;;
55589;SDS011;41452;42.780;23.116;2023-04-25T06:03:31;10.40;;;6.20;;
55589;SDS011;41452;42.780;23.116;2023-04-25T06:05:56;11.30;;;5.78;;
55589;SDS011;41452;42.780;23.116;2023-04-25T06:08:22;11.30;;;5.57;;
55589;SDS011;41452;42.780;23.116;2023-04-25T06:10:47;10.43;;;5.60;;
55589;SDS011;41452;42.780;23.116;2023-04-25T06:13:12;11.32;;;5.50;;
55589;SDS011;41452;42.780;23.116;2023-04-25T06:15:38;10.52;;;5.07;;
55589;SDS011;41452;42.780;23.116;2023-04-25T06:18:03;8.27;;;5.30;;
55589;SDS011;41452;42.780;23.116;2023-04-25T06:20:29;10.20;;;6.05;;
55589;SDS011;41452;42.780;23.116;2023-04-25T06:22:54;10.63;;;6.22;;
55589;SDS011;41452;42.780;23.116;2023-04-25T06:25:20;11.20;;;5.63;;
55589;SDS011;41452;42.780;23.116;2023-04-25T06:27:46;9.35;;;5.72;;
55589;SDS011;41452;42.780;23.116;2023-04-25T06:30:11;10.45;;;5.40;;
55589;SDS011;41452;42.780;23.116;2023-04-25T06:32:37;7.40;;;4.43;;
55589;SDS011;41452;42.780;23.116;2023-04-25T06:35:05;6.25;;;3.67;;
55589;SDS011;41452;42.780;23.116;2023-04-25T06:37:31;10.73;;;3.90;;
55589;SDS011;41452;42.780;23.116;2023-04-25T06:39:56;6.13;;;3.50;;
55589;SDS011;41452;42.780;23.116;2023-04-25T06:42:21;7.05;;;3.83;;
55589;SDS011;41452;42.780;23.116;2023-04-25T06:44:47;6.57;;;3.65;;
55589;SDS011;41452;42.780;23.116;2023-04-25T06:47:13;5.22;;;3.03;;
55589;SDS011;41452;42.780;23.116;2023-04-25T06:49:39;4.68;;;2.80;;
55589;SDS011;41452;42.780;23.116;2023-04-25T06:52:04;5.97;;;3.58;;
55589;SDS011;41452;42.780;23.116;2023-04-25T06:54:30;9.18;;;3.30;;
55589;SDS011;41452;42.780;23.116;2023-04-25T06:56:55;5.78;;;2.80;;
55589;SDS011;41452;42.780;23.116;2023-04-25T06:59:21;3.95;;;2.70;;
55589;SDS011;41452;42.780;23.116;2023-04-25T07:01:47;3.83;;;2.40;;
55589;SDS011;41452;42.780;23.116;2023-04-25T07:04:12;4.25;;;2.40;;
55589;SDS011;41452;42.780;23.116;2023-04-25T07:06:38;3.33;;;2.22;;
55589;SDS011;41452;42.780;23.116;2023-04-25T07:09:07;5.20;;;2.78;;
55589;SDS011;41452;42.780;23.116;2023-04-25T07:11:34;5.82;;;2.90;;
55589;SDS011;41452;42.780;23.116;2023-04-25T07:14:00;8.25;;;2.80;;
55589;SDS011;41452;42.780;23.116;2023-04-25T07:16:26;4.15;;;2.40;;
55589;SDS011;41452;42.780;23.116;2023-04-25T07:18:51;4.88;;;2.90;;
55589;SDS011;41452;42.780;23.116;2023-04-25T07:21:16;3.08;;;2.00;;
55589;SDS011;41452;42.780;23.116;2023-04-25T07:23:42;2.80;;;1.80;;
55589;SDS011;41452;42.780;23.116;2023-04-25T07:26:07;3.67;;;2.40;;
55589;SDS011;41452;42.780;23.116;2023-04-25T07:28:33;3.00;;;2.00;;
55589;SDS011;41452;42.780;23.116;2023-04-25T07:30:58;3.78;;;2.00;;
55589;SDS011;41452;42.780;23.116;2023-04-25T07:33:23;5.10;;;2.20;;
55589;SDS011;41452;42.780;23.116;2023-04-25T07:35:49;3.03;;;2.00;;
55589;SDS011;41452;42.780;23.116;2023-04-25T07:38:15;3.25;;;2.22;;
55589;SDS011;41452;42.780;23.116;2023-04-25T07:40:40;3.72;;;2.17;;
55589;SDS011;41452;42.780;23.116;2023-04-25T07:43:06;4.85;;;2.22;;
55589;SDS011;41452;42.780;23.116;2023-04-25T07:45:31;7.28;;;2.17;;
55589;SDS011;41452;42.780;23.116;2023-04-25T07:47:57;2.97;;;2.13;;
55589;SDS011;41452;42.780;23.116;2023-04-25T07:50:22;3.53;;;2.15;;
55589;SDS011;41452;42.780;23.116;2023-04-25T07:52:47;5.45;;;2.42;;
55589;SDS011;41452;42.780;23.116;2023-04-25T07:55:13;2.80;;;1.75;;
55589;SDS011;41452;42.780;23.116;2023-04-25T07:57:38;5.28;;;1.90;;
55589;SDS011;41452;42.780;23.116;2023-04-25T08:00:04;2.78;;;1.75;;
55589;SDS011;41452;42.780;23.116;2023-04-25T08:02:34;2.80;;;1.67;;
55589;SDS011;41452;42.780;23.116;2023-04-25T08:04:59;3.28;;;1.83;;
55589;SDS011;41452;42.780;23.116;2023-04-25T08:07:24;2.38;;;1.70;;
55589;SDS011;41452;42.780;23.116;2023-04-25T08:09:50;4.47;;;2.10;;
55589;SDS011;41452;42.780;23.116;2023-04-25T08:12:15;3.92;;;2.00;;
55589;SDS011;41452;42.780;23.116;2023-04-25T08:14:41;7.28;;;2.30;;
55589;SDS011;41452;42.780;23.116;2023-04-25T08:17:06;2.80;;;1.60;;
55589;SDS011;41452;42.780;23.116;2023-04-25T08:19:31;3.08;;;1.80;;
55589;SDS011;41452;42.780;23.116;2023-04-25T08:21:57;2.30;;;1.58;;
55589;SDS011;41452;42.780;23.116;2023-04-25T08:24:23;3.20;;;1.70;;
55589;SDS011;41452;42.780;23.116;2023-04-25T08:26:48;3.05;;;2.10;;
55589;SDS011;41452;42.780;23.116;2023-04-25T08:29:14;6.43;;;1.88;;
55589;SDS011;41452;42.780;23.116;2023-04-25T08:31:40;2.70;;;1.80;;
55589;SDS011;41452;42.780;23.116;2023-04-25T08:34:05;3.38;;;1.77;;
55589;SDS011;41452;42.780;23.116;2023-04-25T08:36:31;5.75;;;2.13;;
55589;SDS011;41452;42.780;23.116;2023-04-25T08:38:56;3.13;;;1.92;;
55589;SDS011;41452;42.780;23.116;2023-04-25T08:41:21;6.05;;;1.67;;
55589;SDS011;41452;42.780;23.116;2023-04-25T08:43:48;5.75;;;2.10;;
55589;SDS011;41452;42.780;23.116;2023-04-25T08:46:17;3.22;;;1.70;;
55589;SDS011;41452;42.780;23.116;2023-04-25T08:48:44;2.38;;;1.30;;
55589;SDS011;41452;42.780;23.116;2023-04-25T08:51:15;2.85;;;1.63;;
55589;SDS011;41452;42.780;23.116;2023-04-25T08:53:52;5.68;;;1.52;;
55589;SDS011;41452;42.780;23.116;2023-04-25T08:56:18;1.83;;;1.10;;
55589;SDS011;41452;42.780;23.116;2023-04-25T08:58:50;1.27;;;0.70;;
55589;SDS011;41452;42.780;23.116;2023-04-25T09:01:15;2.40;;;1.33;;
55589;SDS011;41452;42.780;23.116;2023-04-25T09:03:42;2.83;;;1.50;;
55589;SDS011;41452;42.780;23.116;2023-04-25T09:06:09;2.08;;;1.27;;
55589;SDS011;41452;42.780;23.116;2023-04-25T09:08:36;2.38;;;1.50;;
55589;SDS011;41452;42.780;23.116;2023-04-25T09:11:02;2.90;;;1.20;;
55589;SDS011;41452;42.780;23.116;2023-04-25T09:13:28;2.28;;;1.33;;
55589;SDS011;41452;42.780;23.116;2023-04-25T09:15:55;3.22;;;1.70;;
55589;SDS011;41452;42.780;23.116;2023-04-25T09:18:25;1.63;;;1.20;;
55589;SDS011;41452;42.780;23.116;2023-04-25T09:20:55;1.70;;;1.00;;
55589;SDS011;41452;42.780;23.116;2023-04-25T09:23:22;4.45;;;1.20;;
55589;SDS011;41452;42.780;23.116;2023-04-25T09:25:49;2.63;;;1.10;;
55589;SDS011;41452;42.780;23.116;2023-04-25T09:28:25;1.50;;;0.93;;
55589;SDS011;41452;42.780;23.116;2023-04-25T09:30:55;4.28;;;0.90;;
55589;SDS011;41452;42.780;23.116;2023-04-25T09:33:28;2.17;;;1.00;;
55589;SDS011;41452;42.780;23.116;2023-04-25T09:35:56;2.97;;;1.27;;
55589;SDS011;41452;42.780;23.116;2023-04-25T09:38:54;1.85;;;0.90;;
55589;SDS011;41452;42.780;23.116;2023-04-25T09:41:23;0.68;;;0.60;;
55589;SDS011;41452;42.780;23.116;2023-04-25T09:43:49;1.15;;;0.60;;
55589;SDS011;41452;42.780;23.116;2023-04-25T09:46:15;0.85;;;0.60;;
55589;SDS011;41452;42.780;23.116;2023-04-25T09:48:47;3.88;;;0.90;;
55589;SDS011;41452;42.780;23.116;2023-04-25T09:51:14;1.48;;;0.75;;
55589;SDS011;41452;42.780;23.116;2023-04-25T09:53:41;1.58;;;0.88;;
55589;SDS011;41452;42.780;23.116;2023-04-25T09:56:08;1.92;;;0.88;;
55589;SDS011;41452;42.780;23.116;2023-04-25T09:58:35;1.25;;;0.70;;
55589;SDS011;41452;42.780;23.116;2023-04-25T10:01:11;0.90;;;0.60;;
55589;SDS011;41452;42.780;23.116;2023-04-25T10:03:38;2.95;;;0.68;;
55589;SDS011;41452;42.780;23.116;2023-04-25T10:06:08;3.95;;;1.20;;
55589;SDS011;41452;42.780;23.116;2023-04-25T10:08:38;10.73;;;1.65;;
55589;SDS011;41452;42.780;23.116;2023-04-25T10:11:04;6.60;;;1.17;;
55589;SDS011;41452;42.780;23.116;2023-04-25T10:13:33;2.15;;;0.90;;
55589;SDS011;41452;42.780;23.116;2023-04-25T10:16:01;5.30;;;1.48;;
55589;SDS011;41452;42.780;23.116;2023-04-25T10:18:28;7.90;;;1.50;;
55589;SDS011;41452;42.780;23.116;2023-04-25T10:20:54;3.72;;;1.20;;
55589;SDS011;41452;42.780;23.116;2023-04-25T10:23:21;2.65;;;1.15;;
55589;SDS011;41452;42.780;23.116;2023-04-25T10:25:48;2.35;;;0.90;;
55589;SDS011;41452;42.780;23.116;2023-04-25T10:28:16;1.85;;;0.98;;
55589;SDS011;41452;42.780;23.116;2023-04-25T10:33:30;1.23;;;0.82;;
55589;SDS011;41452;42.780;23.116;2023-04-25T10:35:58;1.77;;;0.77;;
55589;SDS011;41452;42.780;23.116;2023-04-25T10:38:24;2.45;;;1.38;;
55589;SDS011;41452;42.780;23.116;2023-04-25T10:41:03;1.00;;;0.70;;
55589;SDS011;41452;42.780;23.116;2023-04-25T10:46:24;1.48;;;0.60;;
55589;SDS011;41452;42.780;23.116;2023-04-25T10:48:51;0.93;;;0.63;;
55589;SDS011;41452;42.780;23.116;2023-04-25T10:56:25;3.65;;;0.50;;
55589;SDS011;41452;42.780;23.116;2023-04-25T11:01:35;1.40;;;0.77;;
55589;SDS011;41452;42.780;23.116;2023-04-25T11:04:05;0.90;;;0.50;;
55589;SDS011;41452;42.780;23.116;2023-04-25T11:06:42;1.52;;;0.60;;
55589;SDS011;41452;42.780;23.116;2023-04-25T11:09:16;2.25;;;0.70;;
55589;SDS011;41452;42.780;23.116;2023-04-25T11:11:41;1.20;;;0.80;;
55589;SDS011;41452;42.780;23.116;2023-04-25T11:14:07;2.63;;;0.75;;
55589;SDS011;41452;42.780;23.116;2023-04-25T11:16:32;2.65;;;0.77;;
55589;SDS011;41452;42.780;23.116;2023-04-25T11:18:58;4.13;;;0.98;;
55589;SDS011;41452;42.780;23.116;2023-04-25T11:21:25;1.98;;;0.90;;
55589;SDS011;41452;42.780;23.116;2023-04-25T11:23:52;1.17;;;0.80;;
55589;SDS011;41452;42.780;23.116;2023-04-25T11:26:19;4.03;;;0.90;;
55589;SDS011;41452;42.780;23.116;2023-04-25T11:28:45;1.95;;;0.90;;
55589;SDS011;41452;42.780;23.116;2023-04-25T11:31:11;1.65;;;0.70;;
55589;SDS011;41452;42.780;23.116;2023-04-25T11:33:37;1.42;;;0.88;;
55589;SDS011;41452;42.780;23.116;2023-04-25T11:36:03;1.83;;;0.82;;
55589;SDS011;41452;42.780;23.116;2023-04-25T11:38:28;4.07;;;0.70;;
55589;SDS011;41452;42.780;23.116;2023-04-25T11:40:54;1.73;;;0.70;;
55589;SDS011;41452;42.780;23.116;2023-04-25T11:43:20;1.20;;;0.60;;
55589;SDS011;41452;42.780;23.116;2023-04-25T11:45:48;1.30;;;0.70;;
55589;SDS011;41452;42.780;23.116;2023-04-25T11:48:14;1.00;;;0.60;;
55589;SDS011;41452;42.780;23.116;2023-04-25T11:50:40;2.25;;;0.90;;
55589;SDS011;41452;42.780;23.116;2023-04-25T11:53:05;1.27;;;0.80;;
55589;SDS011;41452;42.780;23.116;2023-04-25T11:55:31;2.10;;;0.98;;
55589;SDS011;41452;42.780;23.116;2023-04-25T11:57:59;1.30;;;0.80;;
55589;SDS011;41452;42.780;23.116;2023-04-25T12:00:25;1.25;;;0.80;;
55589;SDS011;41452;42.780;23.116;2023-04-25T12:02:55;1.48;;;0.88;;
55589;SDS011;41452;42.780;23.116;2023-04-25T12:05:27;3.83;;;0.98;;
55589;SDS011;41452;42.780;23.116;2023-04-25T12:07:53;1.80;;;0.70;;
55589;SDS011;41452;42.780;23.116;2023-04-25T12:10:19;2.33;;;0.82;;
55589;SDS011;41452;42.780;23.116;2023-04-25T12:12:45;1.55;;;0.80;;
55589;SDS011;41452;42.780;23.116;2023-04-25T12:15:12;3.97;;;1.40;;
55589;SDS011;41452;42.780;23.116;2023-04-25T12:17:47;3.42;;;0.93;;
55589;SDS011;41452;42.780;23.116;2023-04-25T12:22:43;2.78;;;1.40;;
55589;SDS011;41452;42.780;23.116;2023-04-25T12:25:12;2.10;;;1.27;;
55589;SDS011;41452;42.780;23.116;2023-04-25T12:27:39;2.50;;;1.20;;
55589;SDS011;41452;42.780;23.116;2023-04-25T12:30:08;3.40;;;1.55;;
55589;SDS011;41452;42.780;23.116;2023-04-25T12:32:34;4.28;;;1.40;;
55589;SDS011;41452;42.780;23.116;2023-04-25T12:35:00;3.10;;;1.55;;
55589;SDS011;41452;42.780;23.116;2023-04-25T12:37:26;3.97;;;1.50;;
55589;SDS011;41452;42.780;23.116;2023-04-25T12:39:51;2.15;;;1.20;;
55589;SDS011;41452;42.780;23.116;2023-04-25T12:42:17;3.13;;;1.40;;
55589;SDS011;41452;42.780;23.116;2023-04-25T12:44:42;2.72;;;1.27;;
55589;SDS011;41452;42.780;23.116;2023-04-25T12:47:08;2.75;;;1.40;;
55589;SDS011;41452;42.780;23.116;2023-04-25T12:49:33;1.65;;;0.98;;
55589;SDS011;41452;42.780;23.116;2023-04-25T12:51:59;2.45;;;1.10;;
55589;SDS011;41452;42.780;23.116;2023-04-25T12:54:25;2.25;;;0.90;;
55589;SDS011;41452;42.780;23.116;2023-04-25T12:56:50;3.55;;;1.10;;
55589;SDS011;41452;42.780;23.116;2023-04-25T12:59:16;1.80;;;0.82;;
55589;SDS011;41452;42.780;23.116;2023-04-25T13:01:42;1.00;;;0.70;;
55589;SDS011;41452;42.780;23.116;2023-04-25T13:04:07;2.70;;;0.68;;
55589;SDS011;41452;42.780;23.116;2023-04-25T13:06:33;2.53;;;0.70;;
55589;SDS011;41452;42.780;23.116;2023-04-25T13:08:58;0.88;;;0.57;;
55589;SDS011;41452;42.780;23.116;2023-04-25T13:11:24;1.13;;;0.57;;
55589;SDS011;41452;42.780;23.116;2023-04-25T13:13:49;0.88;;;0.60;;
55589;SDS011;41452;42.780;23.116;2023-04-25T13:16:14;1.83;;;0.90;;
55589;SDS011;41452;42.780;23.116;2023-04-25T13:18:40;2.92;;;1.23;;
55589;SDS011;41452;42.780;23.116;2023-04-25T13:21:06;4.68;;;2.45;;
55589;SDS011;41452;42.780;23.116;2023-04-25T13:23:32;9.50;;;4.60;;
55589;SDS011;41452;42.780;23.116;2023-04-25T13:25:58;9.52;;;3.35;;
55589;SDS011;41452;42.780;23.116;2023-04-25T13:28:26;13.88;;;3.60;;
55589;SDS011;41452;42.780;23.116;2023-04-25T13:30:52;7.88;;;1.83;;
55589;SDS011;41452;42.780;23.116;2023-04-25T13:33:19;8.98;;;2.38;;
55589;SDS011;41452;42.780;23.116;2023-04-25T13:35:45;7.63;;;2.78;;
55589;SDS011;41452;42.780;23.116;2023-04-25T13:38:22;3.55;;;1.23;;
55589;SDS011;41452;42.780;23.116;2023-04-25T13:40:48;2.10;;;0.98;;
55589;SDS011;41452;42.780;23.116;2023-04-25T13:43:17;1.90;;;0.82;;
55589;SDS011;41452;42.780;23.116;2023-04-25T13:45:43;0.98;;;0.73;;
55589;SDS011;41452;42.780;23.116;2023-04-25T13:48:08;1.00;;;0.65;;
55589;SDS011;41452;42.780;23.116;2023-04-25T13:50:33;0.63;;;0.38;;
55589;SDS011;41452;42.780;23.116;2023-04-25T13:52:59;1.60;;;0.50;;
55589;SDS011;41452;42.780;23.116;2023-04-25T13:55:24;3.75;;;0.38;;
55589;SDS011;41452;42.780;23.116;2023-04-25T13:57:50;1.63;;;0.50;;
55589;SDS011;41452;42.780;23.116;2023-04-25T14:00:16;0.77;;;0.50;;
55589;SDS011;41452;42.780;23.116;2023-04-25T14:02:41;3.20;;;0.70;;
55589;SDS011;41452;42.780;23.116;2023-04-25T14:05:07;0.90;;;0.60;;
55589;SDS011;41452;42.780;23.116;2023-04-25T14:07:36;0.32;;;0.30;;
55589;SDS011;41452;42.780;23.116;2023-04-25T14:10:02;0.80;;;0.50;;
55589;SDS011;41452;42.780;23.116;2023-04-25T14:12:29;1.27;;;0.85;;
55589;SDS011;41452;42.780;23.116;2023-04-25T14:14:54;0.77;;;0.52;;
55589;SDS011;41452;42.780;23.116;2023-04-25T14:17:19;2.13;;;0.57;;
55589;SDS011;41452;42.780;23.116;2023-04-25T14:19:45;0.70;;;0.50;;
55589;SDS011;41452;42.780;23.116;2023-04-25T14:22:12;1.67;;;0.63;;
55589;SDS011;41452;42.780;23.116;2023-04-25T14:24:38;0.40;;;0.40;;
55589;SDS011;41452;42.780;23.116;2023-04-25T14:27:03;1.10;;;0.60;;
55589;SDS011;41452;42.780;23.116;2023-04-25T14:29:29;1.33;;;0.50;;
55589;SDS011;41452;42.780;23.116;2023-04-25T14:31:54;0.38;;;0.38;;
55589;SDS011;41452;42.780;23.116;2023-04-25T14:34:22;1.15;;;0.47;;
55589;SDS011;41452;42.780;23.116;2023-04-25T14:36:47;1.08;;;0.60;;
55589;SDS011;41452;42.780;23.116;2023-04-25T14:39:13;1.25;;;0.60;;
55589;SDS011;41452;42.780;23.116;2023-04-25T14:41:39;0.95;;;0.55;;
55589;SDS011;41452;42.780;23.116;2023-04-25T14:44:05;1.48;;;0.68;;